createdAt,value
2018-12-09T00:01:27.938Z,8.51
2018-12-09T00:03:58.329Z,8.51
2018-12-09T00:06:28.405Z,8.56
2018-12-09T00:08:58.610Z,8.60
2018-12-09T00:11:28.678Z,8.51
2018-12-09T00:13:58.637Z,8.72
2018-12-09T00:16:28.661Z,8.62
2018-12-09T00:18:58.969Z,8.78
2018-12-09T00:21:28.941Z,8.76
2018-12-09T00:23:59.490Z,8.76
2018-12-09T00:26:34.124Z,8.74
2018-12-09T00:29:04.382Z,8.75
2018-12-09T00:31:34.433Z,8.75
2018-12-09T00:34:04.932Z,8.75
2018-12-09T00:36:34.921Z,8.76
2018-12-09T00:39:06.321Z,8.76
2018-12-09T00:41:37.478Z,8.79
2018-12-09T00:44:07.662Z,8.80
2018-12-09T00:46:37.214Z,8.81
2018-12-09T00:49:07.566Z,8.79
2018-12-09T00:51:37.157Z,8.80
2018-12-09T00:54:07.329Z,8.78
2018-12-09T00:56:37.815Z,8.78
2018-12-09T00:59:07.952Z,8.77
2018-12-09T01:01:37.993Z,8.75
2018-12-09T01:04:09.189Z,8.72
2018-12-09T01:06:39.321Z,8.72
2018-12-09T01:09:08.871Z,8.72
2018-12-09T01:11:39.389Z,8.72
2018-12-09T01:14:09.413Z,8.50
2018-12-09T01:16:39.353Z,8.77
2018-12-09T01:19:09.127Z,8.78
2018-12-09T01:21:39.366Z,8.79
2018-12-09T01:24:09.385Z,8.78
2018-12-09T01:26:39.794Z,8.77
2018-12-09T01:29:09.866Z,8.75
2018-12-09T01:31:40.890Z,8.73
2018-12-09T01:34:11.905Z,8.74
2018-12-09T01:36:42.273Z,8.51
2018-12-09T01:39:12.487Z,8.76
2018-12-09T01:41:41.957Z,8.79
2018-12-09T01:44:12.421Z,8.79
2018-12-09T01:46:42.396Z,8.81
2018-12-09T01:49:12.501Z,8.85
2018-12-09T01:51:42.893Z,8.89
2018-12-09T01:54:14.573Z,8.94
2018-12-09T01:56:44.724Z,8.87
2018-12-09T01:59:15.809Z,9.04
2018-12-09T02:01:45.888Z,9.05
2018-12-09T02:04:16.085Z,9.09
2018-12-09T02:06:46.586Z,9.00
2018-12-09T02:09:16.585Z,9.14
2018-12-09T02:11:48.014Z,9.14
2018-12-09T02:14:18.913Z,9.18
2018-12-09T02:16:49.110Z,9.20
2018-12-09T02:19:22.838Z,9.22
2018-12-09T02:21:53.181Z,9.22
2018-12-09T02:24:23.374Z,9.21
2018-12-09T02:26:53.458Z,9.21
2018-12-09T02:29:25.194Z,9.04
2018-12-09T02:31:55.474Z,9.20
2018-12-09T02:34:25.777Z,9.19
2018-12-09T02:36:56.351Z,9.18
2018-12-09T02:39:26.408Z,9.19
2018-12-09T02:41:56.440Z,9.18
2018-12-09T02:44:28.134Z,9.15
2018-12-09T02:46:57.575Z,9.08
2018-12-09T02:55:42.759Z,8.86
2018-12-09T02:58:12.953Z,8.80
2018-12-09T03:00:43.114Z,8.61
2018-12-09T03:03:13.692Z,8.67
2018-12-09T03:05:43.847Z,8.64
2018-12-09T03:08:14.207Z,8.60
2018-12-09T03:10:45.478Z,8.57
2018-12-09T03:13:15.620Z,8.56
2018-12-09T03:15:45.852Z,8.53
2018-12-09T03:18:16.098Z,8.37
2018-12-09T03:20:46.293Z,8.50
2018-12-09T03:23:17.042Z,8.50
2018-12-09T03:25:47.544Z,8.49
2018-12-09T03:28:17.615Z,8.47
2018-12-09T03:30:47.766Z,8.31
2018-12-09T03:33:18.430Z,8.43
2018-12-09T03:35:48.729Z,8.43
2018-12-09T03:38:18.703Z,8.43
2018-12-09T03:40:49.115Z,8.15
2018-12-09T03:43:18.726Z,8.39
2018-12-09T03:45:48.936Z,8.38
2018-12-09T03:48:19.371Z,8.35
2018-12-09T03:50:49.406Z,7.07
2018-12-09T03:53:19.641Z,8.26
2018-12-09T03:55:50.184Z,7.96
2018-12-09T03:58:20.561Z,8.12
2018-12-09T04:00:50.175Z,8.10
2018-12-09T04:03:20.681Z,8.05
2018-12-09T04:05:50.587Z,8.01
2018-12-09T04:08:20.755Z,7.62
2018-12-09T04:10:51.301Z,7.95
2018-12-09T04:13:20.923Z,7.89
2018-12-09T04:15:50.586Z,7.86
2018-12-09T04:18:21.005Z,7.86
2018-12-09T04:20:50.741Z,7.84
2018-12-09T04:23:20.861Z,7.81
2018-12-09T04:25:51.481Z,7.25
2018-12-09T04:28:21.399Z,7.74
2018-12-09T04:30:51.600Z,7.69
2018-12-09T04:33:21.799Z,7.71
2018-12-09T04:35:52.248Z,7.72
2018-12-09T04:38:21.777Z,7.68
2018-12-09T04:40:51.886Z,7.67
2018-12-09T04:43:21.858Z,7.32
2018-12-09T04:45:51.924Z,7.65
2018-12-09T04:48:21.662Z,7.63
2018-12-09T04:50:51.739Z,7.51
2018-12-09T04:53:21.991Z,7.61
2018-12-09T04:55:52.058Z,7.61
2018-12-09T04:58:22.783Z,7.62
2018-12-09T05:00:56.667Z,7.61
2018-12-09T05:03:26.481Z,7.62
2018-12-09T05:05:56.232Z,7.61
2018-12-09T05:08:25.825Z,7.62
2018-12-09T05:10:56.330Z,7.47
2018-12-09T05:13:26.456Z,7.61
2018-12-09T05:15:56.599Z,7.60
2018-12-09T05:18:26.581Z,7.47
2018-12-09T05:20:56.839Z,7.56
2018-12-09T05:23:27.113Z,7.43
2018-12-09T05:25:57.681Z,7.57
2018-12-09T05:28:27.817Z,7.55
2018-12-09T05:30:57.977Z,7.55
2018-12-09T05:33:28.317Z,7.54
2018-12-09T05:35:58.391Z,7.52
2018-12-09T05:38:27.993Z,7.38
2018-12-09T05:40:58.712Z,7.48
2018-12-09T05:43:28.814Z,7.46
2018-12-09T05:45:59.962Z,7.44
2018-12-09T05:48:30.034Z,7.43
2018-12-09T05:51:00.684Z,6.96
2018-12-09T05:53:30.299Z,7.43
2018-12-09T05:56:00.405Z,7.43
2018-12-09T05:58:33.400Z,7.44
2018-12-09T06:01:04.348Z,7.44
2018-12-09T06:03:36.855Z,7.42
2018-12-09T06:06:06.567Z,7.46
2018-12-09T06:08:36.815Z,7.21
2018-12-09T06:11:21.339Z,7.44
2018-12-09T06:13:55.417Z,7.44
2018-12-09T06:16:27.528Z,7.44
2018-12-09T06:18:58.301Z,7.44
2018-12-09T06:21:32.191Z,7.32
2018-12-09T06:24:02.195Z,7.44
2018-12-09T06:26:31.894Z,7.44
2018-12-09T06:29:02.154Z,7.26
2018-12-09T06:31:32.843Z,7.34
2018-12-09T06:34:03.244Z,7.35
2018-12-09T06:36:33.458Z,7.26
2018-12-09T06:39:03.235Z,7.49
2018-12-09T06:41:33.415Z,7.51
2018-12-09T06:44:04.435Z,7.29
2018-12-09T06:46:34.895Z,7.52
2018-12-09T06:49:05.030Z,7.45
2018-12-09T06:51:34.866Z,6.62
2018-12-09T06:54:05.465Z,7.54
2018-12-09T06:56:35.955Z,7.56
2018-12-09T06:59:06.542Z,7.52
2018-12-09T07:01:37.399Z,7.56
2018-12-09T07:04:09.956Z,7.56
2018-12-09T07:06:40.222Z,7.57
2018-12-09T07:09:10.893Z,7.57
2018-12-09T07:11:40.931Z,7.55
2018-12-09T07:14:11.094Z,6.29
2018-12-09T07:16:41.384Z,7.56
2018-12-09T07:19:12.872Z,7.58
2018-12-09T07:21:42.552Z,7.63
2018-12-09T07:24:17.440Z,7.65
2018-12-09T07:26:47.403Z,7.69
2018-12-09T07:29:18.098Z,7.72
2018-12-09T07:31:48.426Z,6.68
2018-12-09T07:34:18.229Z,7.77
2018-12-09T07:36:49.673Z,7.68
2018-12-09T07:39:24.516Z,7.80
2018-12-09T07:41:54.127Z,7.79
2018-12-09T07:44:24.362Z,7.43
2018-12-09T07:46:54.885Z,7.79
2018-12-09T07:49:24.994Z,7.67
2018-12-09T07:51:55.903Z,7.78
2018-12-09T07:54:26.010Z,7.80
2018-12-09T07:56:56.739Z,7.82
2018-12-09T07:59:27.152Z,7.83
2018-12-09T08:01:57.083Z,7.17
2018-12-09T08:04:26.976Z,7.79
2018-12-09T08:06:58.270Z,7.94
2018-12-09T08:09:28.860Z,7.97
2018-12-09T08:11:58.582Z,7.78
2018-12-09T08:14:33.326Z,7.91
2018-12-09T08:17:05.709Z,8.04
2018-12-09T08:19:36.503Z,7.94
2018-12-09T08:22:06.675Z,8.05
2018-12-09T08:24:36.355Z,8.06
2018-12-09T08:27:08.535Z,7.94
2018-12-09T08:29:39.652Z,8.09
2018-12-09T08:32:09.540Z,7.90
2018-12-09T08:34:39.783Z,8.18
2018-12-09T08:37:09.735Z,7.75
2018-12-09T08:39:39.394Z,7.59
2018-12-09T08:42:09.339Z,7.60
2018-12-09T08:44:39.223Z,8.28
2018-12-09T08:47:09.046Z,8.28
2018-12-09T08:49:39.521Z,8.29
2018-12-09T08:52:09.254Z,8.28
2018-12-09T08:54:39.371Z,6.64
2018-12-09T08:57:09.234Z,8.28
2018-12-09T08:59:39.318Z,8.25
2018-12-09T09:02:09.040Z,8.29
2018-12-09T09:04:39.382Z,8.29
2018-12-09T09:07:08.934Z,8.31
2018-12-09T09:09:38.947Z,8.31
2018-12-09T09:12:08.868Z,7.20
2018-12-09T09:14:38.761Z,8.37
2018-12-09T09:17:08.329Z,8.40
2018-12-09T09:19:38.789Z,8.42
2018-12-09T09:22:08.587Z,8.44
2018-12-09T09:24:38.632Z,8.45
2018-12-09T09:27:08.517Z,8.34
2018-12-09T09:29:38.166Z,7.78
2018-12-09T09:32:07.879Z,8.51
2018-12-09T09:34:38.124Z,8.53
2018-12-09T09:37:08.271Z,8.32
2018-12-09T09:39:38.177Z,8.55
2018-12-09T09:42:08.074Z,8.55
2018-12-09T09:44:37.651Z,8.56
2018-12-09T09:47:07.514Z,8.56
2018-12-09T09:49:38.125Z,8.10
2018-12-09T09:52:09.203Z,8.54
2018-12-09T09:54:39.536Z,7.97
2018-12-09T09:57:09.578Z,7.73
2018-12-09T09:59:39.198Z,8.57
2018-12-09T10:02:08.734Z,8.61
2018-12-09T10:04:39.042Z,8.60
2018-12-09T10:07:08.534Z,8.64
2018-12-09T10:09:38.171Z,8.68
2018-12-09T10:12:08.033Z,8.73
2018-12-09T10:14:38.155Z,8.76
2018-12-09T10:17:07.658Z,8.80
2018-12-09T10:19:37.739Z,8.85
2018-12-09T10:22:07.249Z,8.86
2018-12-09T10:24:36.807Z,8.90
2018-12-09T10:27:06.785Z,8.47
2018-12-09T10:29:36.482Z,7.70
2018-12-09T10:32:06.030Z,8.95
2018-12-09T10:34:38.911Z,8.99
2018-12-09T10:37:05.707Z,9.01
2018-12-09T10:39:36.126Z,9.03
2018-12-09T10:42:06.209Z,9.05
2018-12-09T10:44:35.762Z,8.15
2018-12-09T10:47:05.773Z,7.60
2018-12-09T10:49:35.735Z,9.07
2018-12-09T10:52:05.720Z,9.10
2018-12-09T10:54:35.352Z,7.32
2018-12-09T10:57:05.762Z,9.13
2018-12-09T10:59:36.397Z,9.14
2018-12-09T11:02:11.500Z,9.14
2018-12-09T11:04:41.305Z,9.15
2018-12-09T11:07:10.786Z,9.15
2018-12-09T11:09:40.321Z,9.16
2018-12-09T11:12:10.156Z,9.17
2018-12-09T11:14:39.846Z,9.20
2018-12-09T11:17:09.421Z,9.11
2018-12-09T11:19:39.275Z,9.23
2018-12-09T11:22:08.802Z,9.26
2018-12-09T11:24:39.519Z,9.26
2018-12-09T11:27:11.593Z,9.28
2018-12-09T11:29:41.729Z,9.29
2018-12-09T11:32:11.214Z,9.27
2018-12-09T11:34:41.701Z,9.28
2018-12-09T11:37:11.278Z,9.28
2018-12-09T11:39:41.384Z,9.28
2018-12-09T11:42:11.229Z,9.20
2018-12-09T11:44:41.468Z,9.31
2018-12-09T11:47:11.088Z,9.28
2018-12-09T11:49:42.001Z,9.26
2018-12-09T11:52:11.642Z,9.22
2018-12-09T11:54:41.789Z,9.17
2018-12-09T11:57:11.839Z,9.13
2018-12-09T11:59:41.421Z,9.05
2018-12-09T12:02:11.411Z,9.02
2018-12-09T12:04:41.874Z,8.99
2018-12-09T12:07:11.419Z,8.91
2018-12-09T12:09:41.390Z,8.87
2018-12-09T12:12:11.226Z,8.79
2018-12-09T12:14:41.161Z,8.74
2018-12-09T12:17:10.755Z,8.58
2018-12-09T12:19:41.337Z,8.52
2018-12-09T12:22:10.874Z,8.63
2018-12-09T12:24:40.435Z,8.61
2018-12-09T12:27:10.197Z,8.57
2018-12-09T12:29:40.394Z,8.42
2018-12-09T12:32:09.944Z,8.51
2018-12-09T12:34:40.231Z,8.50
2018-12-09T12:37:09.859Z,8.46
2018-12-09T12:39:39.930Z,8.06
2018-12-09T12:42:10.110Z,8.38
2018-12-09T12:44:40.201Z,8.34
2018-12-09T12:47:09.870Z,8.30
2018-12-09T12:49:40.201Z,8.23
2018-12-09T12:52:09.806Z,8.03
2018-12-09T12:54:39.815Z,8.07
2018-12-09T12:57:09.618Z,7.99
2018-12-09T12:59:39.513Z,7.76
2018-12-09T13:02:09.613Z,7.56
2018-12-09T13:04:39.718Z,7.73
2018-12-09T13:07:09.958Z,7.65
2018-12-09T13:09:39.514Z,7.38
2018-12-09T13:12:09.321Z,7.51
2018-12-09T13:14:38.866Z,7.44
2018-12-09T13:17:08.570Z,7.37
2018-12-09T13:19:38.417Z,7.34
2018-12-09T13:22:08.518Z,7.19
2018-12-09T13:24:38.505Z,7.15
2018-12-09T13:27:08.446Z,7.25
2018-12-09T13:29:38.587Z,7.22
2018-12-09T13:32:08.199Z,7.19
2018-12-09T13:34:38.049Z,7.16
2018-12-09T13:37:07.597Z,7.13
2018-12-09T13:39:37.831Z,7.10
2018-12-09T13:42:08.723Z,7.12
2018-12-09T13:44:38.286Z,7.10
2018-12-09T13:47:08.394Z,7.09
2018-12-09T13:49:38.195Z,7.05
2018-12-09T13:52:07.795Z,7.04
2018-12-09T13:54:37.978Z,7.05
2018-12-09T13:57:07.818Z,7.02
2018-12-09T13:59:37.875Z,6.99
2018-12-09T14:02:07.406Z,6.95
2018-12-09T14:04:37.618Z,6.90
2018-12-09T14:07:07.722Z,6.74
2018-12-09T14:09:37.854Z,6.84
2018-12-09T14:12:07.941Z,6.84
2018-12-09T14:14:38.035Z,6.79
2018-12-09T14:17:08.203Z,6.74
2018-12-09T14:19:38.753Z,6.72
2018-12-09T14:22:08.878Z,6.70
2018-12-09T14:24:38.969Z,6.20
2018-12-09T14:27:08.814Z,6.69
2018-12-09T14:29:38.654Z,6.68
2018-12-09T14:32:08.850Z,6.52
2018-12-09T14:34:38.728Z,6.64
2018-12-09T14:37:08.309Z,6.63
2018-12-09T14:39:37.912Z,6.62
2018-12-09T14:42:07.821Z,6.61
2018-12-09T14:44:38.843Z,6.44
2018-12-09T14:47:07.464Z,6.54
2018-12-09T14:49:38.038Z,6.50
2018-12-09T14:52:07.635Z,6.46
2018-12-09T14:54:38.169Z,6.41
2018-12-09T14:57:08.034Z,6.37
2018-12-09T14:59:38.257Z,6.34
2018-12-09T15:02:07.834Z,6.31
2018-12-09T15:04:37.709Z,6.15
2018-12-09T15:07:08.195Z,4.70
2018-12-09T15:09:38.354Z,6.22
2018-12-09T15:12:08.458Z,6.23
2018-12-09T15:14:38.045Z,6.24
2018-12-09T15:17:07.581Z,6.26
2018-12-09T15:19:38.102Z,6.30
2018-12-09T15:22:07.687Z,6.33
2018-12-09T15:24:41.387Z,6.35
2018-12-09T15:27:07.510Z,6.37
2018-12-09T15:29:38.190Z,6.38
2018-12-09T15:32:08.314Z,6.36
2018-12-09T15:34:39.535Z,6.39
2018-12-09T15:37:09.491Z,6.12
2018-12-09T15:39:39.022Z,6.24
2018-12-09T15:42:08.834Z,6.32
2018-12-09T15:44:38.982Z,6.31
2018-12-09T15:47:08.613Z,6.31
2018-12-09T15:49:38.402Z,6.33
2018-12-09T15:52:07.873Z,6.33
2018-12-09T15:54:37.626Z,6.34
2018-12-09T15:57:08.637Z,6.34
2018-12-09T15:59:38.211Z,6.33
2018-12-09T16:02:08.258Z,6.33
2018-12-09T16:04:38.119Z,6.33
2018-12-09T16:07:08.370Z,6.33
2018-12-09T16:09:37.918Z,6.32
2018-12-09T16:12:07.826Z,6.32
2018-12-09T16:14:37.962Z,6.32
2018-12-09T16:17:07.490Z,6.31
2018-12-09T16:19:37.303Z,6.31
2018-12-09T16:22:06.931Z,6.29
2018-12-09T16:24:36.469Z,6.27
2018-12-09T16:27:06.430Z,6.27
2018-12-09T16:29:36.062Z,6.27
2018-12-09T16:32:05.629Z,6.27
2018-12-09T16:34:35.463Z,6.26
2018-12-09T16:37:05.469Z,6.25
2018-12-09T16:39:34.971Z,6.25
2018-12-09T16:42:04.891Z,6.12
2018-12-09T16:44:34.402Z,6.15
2018-12-09T16:47:03.940Z,6.26
2018-12-09T16:49:33.782Z,6.15
2018-12-09T16:52:03.307Z,6.27
2018-12-09T16:54:32.956Z,6.26
2018-12-09T16:57:02.777Z,5.90
2018-12-09T16:59:32.277Z,6.12
2018-12-09T17:02:01.823Z,6.26
2018-12-09T17:04:31.849Z,6.27
2018-12-09T17:07:02.009Z,6.30
2018-12-09T17:09:31.611Z,6.32
2018-12-09T17:12:01.892Z,6.33
2018-12-09T17:14:32.159Z,6.34
2018-12-09T17:17:01.134Z,6.02
2018-12-09T17:19:30.924Z,6.03
2018-12-09T17:22:00.406Z,6.42
2018-12-09T17:24:29.943Z,5.96
2018-12-09T17:26:59.717Z,6.43
2018-12-09T17:29:31.475Z,6.41
2018-12-09T17:32:00.972Z,6.40
2018-12-09T17:34:31.262Z,6.36
2018-12-09T17:37:01.690Z,6.40
2018-12-09T17:39:31.294Z,6.44
2018-12-09T17:42:01.135Z,6.48
2018-12-09T17:44:30.720Z,6.49
2018-12-09T17:47:00.238Z,6.51
2018-12-09T17:49:30.046Z,6.53
2018-12-09T17:51:59.621Z,6.55
2018-12-09T17:54:29.281Z,6.33
2018-12-09T17:56:59.300Z,6.60
2018-12-09T17:59:29.085Z,6.63
2018-12-09T18:02:05.281Z,6.64
2018-12-09T18:04:35.223Z,6.64
2018-12-09T18:07:04.827Z,6.64
2018-12-09T18:09:34.410Z,6.62
2018-12-09T18:12:04.449Z,6.62
2018-12-09T18:14:33.993Z,6.37
2018-12-09T18:17:03.493Z,6.61
2018-12-09T18:19:33.343Z,6.58
2018-12-09T18:22:02.889Z,6.58
2018-12-09T18:24:32.422Z,6.58
2018-12-09T18:27:02.290Z,6.57
2018-12-09T18:29:32.742Z,6.58
2018-12-09T18:32:02.311Z,6.58
2018-12-09T18:34:32.994Z,6.41
2018-12-09T18:37:02.637Z,6.54
2018-12-09T18:39:32.231Z,6.53
2018-12-09T18:42:02.086Z,6.55
2018-12-09T18:44:31.663Z,6.54
2018-12-09T18:47:01.304Z,6.53
2018-12-09T18:49:31.163Z,6.52
2018-12-09T18:52:00.682Z,6.49
2018-12-09T18:54:30.266Z,6.45
2018-12-09T18:57:00.106Z,6.43
2018-12-09T18:59:29.621Z,6.41
2018-12-09T19:01:59.188Z,6.16
2018-12-09T19:04:33.701Z,6.37
2018-12-09T19:07:03.461Z,6.35
2018-12-09T19:09:33.182Z,5.91
2018-12-09T19:12:03.187Z,6.37
2018-12-09T19:14:32.762Z,6.33
2018-12-09T19:17:02.451Z,6.31
2018-12-09T19:19:32.303Z,5.96
2018-12-09T19:22:02.053Z,5.98
2018-12-09T19:24:31.658Z,6.32
2018-12-09T19:27:02.322Z,6.10
2018-12-09T19:29:31.871Z,6.26
2018-12-09T19:32:01.538Z,6.25
2018-12-09T19:34:31.449Z,6.22
2018-12-09T19:37:02.133Z,5.85
2018-12-09T19:39:32.159Z,6.17
2018-12-09T19:42:02.598Z,5.80
2018-12-09T19:44:32.161Z,6.15
2018-12-09T19:47:01.834Z,6.16
2018-12-09T19:49:31.875Z,6.15
2018-12-09T19:52:01.517Z,6.15
2018-12-09T19:57:07.170Z,5.70
2018-12-09T19:59:36.779Z,6.09
2018-12-09T20:02:06.380Z,6.23
2018-12-09T20:04:36.882Z,6.24
2018-12-09T20:07:06.435Z,6.23
2018-12-09T20:09:35.982Z,6.09
2018-12-09T20:12:18.284Z,6.16
2018-12-09T20:14:47.802Z,6.14
2018-12-09T20:17:17.310Z,6.12
2018-12-09T20:19:47.277Z,5.72
2018-12-09T20:22:21.429Z,6.04
2018-12-09T20:24:50.990Z,6.05
2018-12-09T20:27:20.915Z,6.07
2018-12-09T20:29:50.485Z,6.09
2018-12-09T20:32:20.047Z,6.12
2018-12-09T20:34:49.902Z,6.13
2018-12-09T20:37:19.419Z,6.02
2018-12-09T20:39:49.305Z,6.13
2018-12-09T20:42:19.697Z,6.12
2018-12-09T20:44:49.272Z,6.10
2018-12-09T20:47:19.090Z,6.11
2018-12-09T20:49:49.556Z,6.11
2018-12-09T20:52:20.159Z,5.78
2018-12-09T20:54:49.720Z,6.13
2018-12-09T20:57:20.473Z,6.12
2018-12-09T20:59:51.815Z,6.13
2018-12-09T21:02:22.763Z,6.12
2018-12-09T21:04:53.040Z,6.11
2018-12-09T21:07:25.134Z,6.12
2018-12-09T21:09:53.562Z,6.16
2018-12-09T21:12:25.228Z,6.18
2018-12-09T21:14:54.986Z,6.22
2018-12-09T21:17:25.228Z,5.71
2018-12-09T21:19:55.546Z,6.25
2018-12-09T21:22:25.216Z,6.14
2018-12-09T21:24:56.122Z,6.25
2018-12-09T21:27:26.434Z,6.21
2018-12-09T21:29:55.962Z,6.18
2018-12-09T21:32:26.110Z,6.14
2018-12-09T21:34:56.540Z,6.10
2018-12-09T21:37:26.474Z,6.07
2018-12-09T21:39:56.608Z,6.02
2018-12-09T21:42:27.073Z,6.03
2018-12-09T21:44:57.221Z,6.03
2018-12-09T21:47:27.171Z,6.03
2018-12-09T21:49:57.034Z,6.04
2018-12-09T21:52:26.633Z,6.04
2018-12-09T21:54:56.165Z,6.06
2018-12-09T21:57:25.964Z,6.06
2018-12-09T21:59:55.505Z,6.07
2018-12-09T22:02:24.999Z,6.10
2018-12-09T22:04:55.934Z,6.12
2018-12-09T22:07:25.995Z,6.14
2018-12-09T22:09:56.018Z,6.12
2018-12-09T22:12:30.210Z,6.10
2018-12-09T22:14:59.770Z,6.03
2018-12-09T22:17:29.564Z,5.97
2018-12-09T22:19:59.690Z,5.93
2018-12-09T22:22:29.886Z,5.92
2018-12-09T22:25:00.817Z,5.56
2018-12-09T22:27:30.457Z,5.94
2018-12-09T22:30:00.569Z,5.94
2018-12-09T22:32:30.480Z,5.95
2018-12-09T22:35:00.033Z,6.00
2018-12-09T22:37:30.189Z,6.02
2018-12-09T22:40:00.229Z,6.03
2018-12-09T22:42:29.778Z,6.04
2018-12-09T22:44:59.329Z,6.07
2018-12-09T22:47:29.189Z,6.08
2018-12-09T22:49:58.963Z,5.98
2018-12-09T22:52:28.701Z,5.83
2018-12-09T22:54:58.474Z,6.09
2018-12-09T22:57:28.429Z,6.05
2018-12-09T22:59:58.031Z,5.97
2018-12-09T23:02:33.002Z,5.86
2018-12-09T23:05:02.664Z,5.78
2018-12-09T23:07:37.639Z,5.71
2018-12-09T23:10:08.051Z,5.68
2018-12-09T23:12:38.109Z,5.66
2018-12-09T23:15:08.099Z,5.60
2018-12-09T23:17:38.348Z,5.56
2018-12-09T23:20:08.757Z,5.52
2018-12-09T23:22:38.470Z,5.12
2018-12-09T23:25:08.421Z,5.44
2018-12-09T23:27:38.976Z,5.39
2018-12-09T23:30:10.410Z,5.37
2018-12-09T23:32:39.957Z,5.36
2018-12-09T23:35:09.985Z,5.34
2018-12-09T23:37:39.998Z,5.34
2018-12-09T23:40:10.322Z,5.34
2018-12-09T23:42:40.837Z,5.36
2018-12-09T23:45:11.122Z,5.38
2018-12-09T23:47:40.657Z,5.39
2018-12-09T23:50:11.086Z,5.39
2018-12-09T23:52:41.430Z,5.40
2018-12-09T23:55:11.394Z,5.37
2018-12-09T23:57:41.190Z,5.39
